Time;durP1;ratioP1;P1;durP2;ratioP2;P2;SDS_P1;SDS_P2;PMS_P1;PMS_P2;Temp;Humidity;BMP_temperature;BMP_pressure;BME280_temperature;BME280_humidity;BME280_pressure;Samples;Min_cycle;Max_cycle;Signal;HPM_P1;HPM_P2
2021/12/23 00:02:24;;;;;;;29.05;14.98;;;-1.50;99.90;;;;;;5125885;27;20127;-83
2021/12/23 00:04:50;;;;;;;25.20;14.23;;;-1.50;99.90;;;;;;5113480;27;20130;-83
2021/12/23 00:07:15;;;;;;;30.20;15.10;;;-1.50;99.90;;;;;;5133044;27;20050;-83
2021/12/23 00:12:25;;;;;;;26.30;15.15;;;-1.40;99.90;;;;;;5111429;27;20066;-83
2021/12/23 00:14:51;;;;;;;25.95;15.23;;;-1.40;99.90;;;;;;5096753;27;20039;-83
2021/12/23 00:25:28;;;;;;;28.48;13.75;;;-1.30;99.90;;;;;;5131680;27;20096;-84
2021/12/23 00:27:54;;;;;;;23.95;14.80;;;-1.30;99.90;;;;;;5129895;27;20039;-83
2021/12/23 00:30:20;;;;;;;23.15;14.07;;;-1.30;99.90;;;;;;5090644;28;20188;-83
2021/12/23 00:32:45;;;;;;;25.20;14.15;;;-1.20;99.90;;;;;;5114362;27;20050;-83
2021/12/23 00:35:11;;;;;;;27.42;15.30;;;-1.20;99.90;;;;;;5097978;27;20050;-84
2021/12/23 00:37:41;;;;;;;25.60;14.65;;;-1.20;99.90;;;;;;5127924;27;20050;-85
2021/12/23 00:40:11;;;;;;;28.60;14.63;;;-1.20;99.90;;;;;;5114927;27;20073;-85
2021/12/23 00:42:38;;;;;;;24.50;14.23;;;-1.20;99.90;;;;;;5114970;27;20413;-84
2021/12/23 00:45:05;;;;;;;27.98;14.23;;;-1.10;99.90;;;;;;5131129;27;20281;-83
2021/12/23 00:47:32;;;;;;;26.02;15.55;;;-1.10;99.90;;;;;;5129683;27;20071;-83
2021/12/23 00:49:58;;;;;;;24.80;14.65;;;-1.10;99.90;;;;;;5101790;27;20450;-83
2021/12/23 00:52:36;;;;;;;24.67;14.90;;;-1.10;99.90;;;;;;5114654;27;20103;-84
2021/12/23 00:55:04;;;;;;;24.85;14.38;;;-1.10;99.90;;;;;;5111331;28;20054;-83
2021/12/23 00:57:31;;;;;;;24.55;14.88;;;-1.10;99.90;;;;;;5109770;27;20484;-83
2021/12/23 00:59:58;;;;;;;29.00;14.65;;;-1.00;99.90;;;;;;5093580;28;20135;-85
2021/12/23 01:02:29;;;;;;;30.15;15.75;;;-1.00;99.90;;;;;;5110605;28;20047;-83
2021/12/23 01:04:55;;;;;;;28.65;15.57;;;-1.00;99.90;;;;;;5107865;27;20079;-84
2021/12/23 01:07:21;;;;;;;29.95;16.00;;;-1.00;99.90;;;;;;5113576;27;20506;-83
2021/12/23 01:09:46;;;;;;;28.50;16.05;;;-1.00;99.90;;;;;;5110054;27;20055;-82
2021/12/23 01:12:15;;;;;;;28.10;16.27;;;-1.00;99.90;;;;;;5130721;27;20051;-83
2021/12/23 01:19:55;;;;;;;28.73;15.55;;;-0.90;99.90;;;;;;5130152;27;20045;-83
2021/12/23 01:22:21;;;;;;;32.72;15.75;;;-0.90;99.90;;;;;;5078260;28;20043;-83
2021/12/23 01:24:48;;;;;;;28.25;16.63;;;-0.90;99.90;;;;;;5094497;28;20083;-85
2021/12/23 01:27:15;;;;;;;29.15;16.88;;;-0.90;99.90;;;;;;5128795;27;20043;-82
2021/12/23 01:29:41;;;;;;;28.02;16.42;;;-0.90;99.90;;;;;;5106556;28;20504;-83
2021/12/23 01:32:07;;;;;;;29.83;17.25;;;-0.90;99.90;;;;;;5115160;27;20720;-83
2021/12/23 01:34:34;;;;;;;32.33;16.48;;;-0.90;99.90;;;;;;5131451;27;20043;-82
2021/12/23 01:37:02;;;;;;;28.75;15.52;;;-0.80;99.90;;;;;;5125577;27;20047;-82
2021/12/23 01:39:27;;;;;;;30.40;17.20;;;-0.80;99.90;;;;;;5097520;27;20035;-83
2021/12/23 01:41:53;;;;;;;30.08;16.27;;;-0.80;99.90;;;;;;5091491;28;20042;-86
2021/12/23 01:44:19;;;;;;;33.10;17.08;;;-0.80;99.90;;;;;;5106529;28;20051;-82
2021/12/23 01:46:45;;;;;;;28.30;16.67;;;-0.70;99.90;;;;;;5117726;27;20051;-82
2021/12/23 01:49:10;;;;;;;31.15;16.25;;;-0.80;99.90;;;;;;5113048;27;20039;-83
2021/12/23 01:51:37;;;;;;;28.77;16.08;;;-0.70;99.90;;;;;;5114137;27;20047;-83
2021/12/23 01:54:03;;;;;;;29.70;17.40;;;-0.70;99.90;;;;;;5120005;27;20047;-82
2021/12/23 01:56:29;;;;;;;28.73;16.42;;;-0.70;99.90;;;;;;5106337;27;20051;-82
2021/12/23 01:58:55;;;;;;;28.05;16.17;;;-0.80;99.90;;;;;;5128935;27;20038;-86
2021/12/23 02:01:21;;;;;;;27.15;14.98;;;-0.80;99.90;;;;;;5112820;27;20386;-82
2021/12/23 02:03:47;;;;;;;26.73;15.48;;;-0.80;99.90;;;;;;5112360;27;20047;-82
2021/12/23 02:06:13;;;;;;;29.45;16.38;;;-0.80;99.90;;;;;;5094836;27;20046;-82
2021/12/23 02:08:40;;;;;;;28.40;15.35;;;-0.80;99.90;;;;;;5130680;27;20035;-82
2021/12/23 02:11:08;;;;;;;28.20;15.35;;;-0.80;99.90;;;;;;5116408;27;20070;-82
2021/12/23 02:13:35;;;;;;;28.20;15.50;;;-0.80;99.90;;;;;;5098703;27;20069;-82
2021/12/23 02:16:02;;;;;;;28.80;14.95;;;-0.80;99.90;;;;;;5116081;27;20517;-83
2021/12/23 02:18:28;;;;;;;29.50;15.52;;;-0.80;99.90;;;;;;5131976;27;20047;-83
2021/12/23 02:20:55;;;;;;;28.50;16.58;;;-0.80;99.90;;;;;;5133553;27;20075;-83
2021/12/23 02:23:21;;;;;;;27.05;15.95;;;-0.80;99.90;;;;;;5131157;27;20039;-83
2021/12/23 02:25:47;;;;;;;29.52;16.08;;;-0.80;99.90;;;;;;5109783;27;20164;-83
2021/12/23 02:28:20;;;;;;;28.35;15.38;;;-0.80;99.90;;;;;;5114316;27;20054;-83
2021/12/23 02:30:51;;;;;;;26.90;14.75;;;-0.80;99.90;;;;;;5124715;27;20050;-82
2021/12/23 02:33:18;;;;;;;25.02;13.95;;;-0.80;99.90;;;;;;5091149;27;20047;-83
2021/12/23 02:35:44;;;;;;;27.88;15.93;;;-0.80;99.90;;;;;;5101250;27;20054;-83
2021/12/23 02:38:10;;;;;;;26.65;14.60;;;-0.80;99.90;;;;;;5109494;27;20050;-83
2021/12/23 02:40:39;;;;;;;31.02;16.02;;;-0.80;99.90;;;;;;5113999;27;20126;-83
2021/12/23 02:43:12;;;;;;;32.05;16.23;;;-0.80;99.90;;;;;;5114690;27;20107;-82
2021/12/23 02:45:39;;;;;;;27.95;15.73;;;-0.80;99.90;;;;;;5116844;27;20046;-82
2021/12/23 02:48:11;;;;;;;27.98;15.75;;;-0.80;99.90;;;;;;5114751;27;20038;-83
2021/12/23 02:50:37;;;;;;;29.77;17.13;;;-0.80;99.90;;;;;;5113505;27;20042;-83
2021/12/23 02:53:03;;;;;;;26.92;15.70;;;-0.80;99.90;;;;;;5114662;27;20039;-87
2021/12/23 02:55:28;;;;;;;26.35;15.82;;;-0.90;99.90;;;;;;5112822;27;20043;-82
2021/12/23 02:57:54;;;;;;;27.38;15.93;;;-0.80;99.90;;;;;;5092653;27;20095;-82
2021/12/23 03:00:20;;;;;;;29.42;15.80;;;-0.80;99.90;;;;;;5113983;27;20043;-82
2021/12/23 03:02:45;;;;;;;31.02;15.43;;;-0.80;99.90;;;;;;5132773;27;20093;-82
2021/12/23 03:05:11;;;;;;;30.73;16.10;;;-0.80;99.90;;;;;;5114943;27;20042;-82
2021/12/23 03:07:37;;;;;;;28.75;15.93;;;-0.80;99.90;;;;;;5113598;27;20408;-82
2021/12/23 03:10:06;;;;;;;27.60;15.75;;;-0.80;99.90;;;;;;5122666;27;20483;-83
2021/12/23 03:12:31;;;;;;;25.98;15.75;;;-0.80;99.90;;;;;;5132351;27;20091;-82
2021/12/23 03:14:59;;;;;;;31.00;15.88;;;-0.80;99.90;;;;;;5115721;27;20038;-85
2021/12/23 03:17:25;;;;;;;29.70;15.07;;;-0.80;99.90;;;;;;5115079;27;20045;-82
2021/12/23 03:19:51;;;;;;;27.90;16.00;;;-0.80;99.90;;;;;;5132555;27;20047;-83
2021/12/23 03:22:16;;;;;;;27.77;15.77;;;-0.80;99.90;;;;;;5132512;27;20053;-84
2021/12/23 03:24:42;;;;;;;25.67;15.50;;;-0.80;99.90;;;;;;5097948;27;20054;-82
2021/12/23 03:27:08;;;;;;;28.42;14.82;;;-0.80;99.90;;;;;;5079222;27;20038;-84
2021/12/23 03:29:33;;;;;;;27.67;15.57;;;-0.80;99.90;;;;;;5114384;27;20476;-82
2021/12/23 03:31:59;;;;;;;28.13;15.57;;;-0.80;99.90;;;;;;5098668;27;20038;-82
2021/12/23 03:34:25;;;;;;;28.52;15.52;;;-0.80;99.90;;;;;;5115096;27;20061;-83
2021/12/23 03:36:51;;;;;;;29.25;15.27;;;-0.70;99.90;;;;;;5115098;27;20039;-82
2021/12/23 03:39:16;;;;;;;32.28;16.35;;;-0.70;99.90;;;;;;5131347;27;20121;-82
2021/12/23 03:41:42;;;;;;;32.55;16.55;;;-0.70;99.90;;;;;;5115245;27;20043;-83
2021/12/23 03:44:08;;;;;;;27.95;15.68;;;-0.70;99.90;;;;;;5126799;27;20035;-85
2021/12/23 03:46:37;;;;;;;26.77;15.57;;;-0.70;99.90;;;;;;5098279;27;20487;-82
2021/12/23 03:49:04;;;;;;;26.48;14.63;;;-0.70;99.90;;;;;;5114434;27;20039;-82
2021/12/23 03:51:30;;;;;;;25.60;15.02;;;-0.60;99.90;;;;;;5122340;27;20043;-82
2021/12/23 03:53:55;;;;;;;27.17;15.68;;;-0.60;99.90;;;;;;5082176;27;20042;-82
2021/12/23 03:56:21;;;;;;;28.02;16.70;;;-0.60;99.90;;;;;;5094902;28;20051;-82
2021/12/23 03:58:47;;;;;;;30.20;15.85;;;-0.60;99.90;;;;;;5129300;27;20043;-83
2021/12/23 04:01:13;;;;;;;28.48;15.93;;;-0.60;99.90;;;;;;5115069;27;20049;-84
2021/12/23 04:03:39;;;;;;;27.60;15.68;;;-0.60;99.90;;;;;;5132097;27;20057;-82
2021/12/23 04:06:05;;;;;;;29.23;14.82;;;-0.60;99.90;;;;;;5113401;27;20461;-83
2021/12/23 04:08:30;;;;;;;27.35;15.63;;;-0.50;99.90;;;;;;5113574;27;20054;-82
2021/12/23 04:10:59;;;;;;;27.35;14.77;;;-0.60;99.90;;;;;;5114839;27;20074;-82
2021/12/23 04:13:26;;;;;;;31.02;14.93;;;-0.50;99.90;;;;;;5114719;27;20055;-83
2021/12/23 04:15:52;;;;;;;27.73;15.63;;;-0.50;99.90;;;;;;5131594;27;20551;-84
2021/12/23 04:18:17;;;;;;;28.00;15.52;;;-0.50;99.90;;;;;;5093465;27;20131;-84
2021/12/23 04:20:53;;;;;;;30.92;15.90;;;-0.50;99.90;;;;;;5115422;27;20053;-84
2021/12/23 04:23:28;;;;;;;29.90;16.60;;;-0.50;99.90;;;;;;5116956;27;20050;-83
2021/12/23 04:25:55;;;;;;;27.05;14.85;;;-0.50;99.90;;;;;;5134769;27;20054;-83
2021/12/23 04:28:22;;;;;;;30.45;16.90;;;-0.50;99.90;;;;;;5134705;27;20069;-82
2021/12/23 04:30:48;;;;;;;32.60;16.63;;;-0.50;99.90;;;;;;5118013;27;20042;-82
2021/12/23 04:33:14;;;;;;;27.48;16.25;;;-0.50;99.90;;;;;;5136034;27;20440;-87
2021/12/23 04:35:40;;;;;;;27.58;15.70;;;-0.40;99.90;;;;;;5102888;27;20050;-82
2021/12/23 04:38:06;;;;;;;29.02;15.65;;;-0.40;99.90;;;;;;5130494;27;20682;-82
2021/12/23 04:40:37;;;;;;;31.17;16.23;;;-0.40;99.90;;;;;;5117525;27;20069;-83
2021/12/23 04:43:06;;;;;;;30.23;15.05;;;-0.40;99.90;;;;;;5101689;27;20091;-82
2021/12/23 04:45:32;;;;;;;27.02;15.88;;;-0.40;99.90;;;;;;5117949;27;20409;-84
2021/12/23 04:47:58;;;;;;;25.73;15.10;;;-0.40;99.90;;;;;;5135339;27;20092;-83
2021/12/23 04:50:24;;;;;;;26.85;15.25;;;-0.40;99.90;;;;;;5131422;27;20698;-82
2021/12/23 04:52:51;;;;;;;28.85;16.00;;;-0.40;99.90;;;;;;5095699;27;20081;-82
2021/12/23 04:55:17;;;;;;;25.33;14.43;;;-0.40;99.90;;;;;;5098578;27;20103;-85
2021/12/23 04:57:44;;;;;;;29.13;15.98;;;-0.40;99.90;;;;;;5105324;27;20510;-82
2021/12/23 05:00:19;;;;;;;30.60;15.93;;;-0.40;99.90;;;;;;5122249;27;20038;-83
2021/12/23 05:02:45;;;;;;;29.75;16.50;;;-0.40;99.90;;;;;;5133600;27;20121;-83
2021/12/23 05:05:11;;;;;;;26.45;14.90;;;-0.40;99.90;;;;;;5135217;27;20050;-84
2021/12/23 05:07:37;;;;;;;28.70;16.17;;;-0.30;99.90;;;;;;5086923;27;20039;-84
2021/12/23 05:10:05;;;;;;;29.13;15.65;;;-0.30;99.90;;;;;;5133960;27;20101;-82
2021/12/23 05:12:30;;;;;;;32.55;16.17;;;-0.30;99.90;;;;;;5113286;27;20074;-82
2021/12/23 05:14:56;;;;;;;28.70;16.15;;;-0.30;99.90;;;;;;5115644;27;20086;-83
2021/12/23 05:17:22;;;;;;;28.40;15.77;;;-0.30;99.90;;;;;;5105079;27;20073;-85
2021/12/23 05:19:47;;;;;;;30.33;16.90;;;-0.20;99.90;;;;;;5130176;27;20038;-83
2021/12/23 05:22:13;;;;;;;29.55;15.80;;;-0.30;99.90;;;;;;5134775;27;20064;-82
2021/12/23 05:24:39;;;;;;;26.63;15.15;;;-0.30;99.90;;;;;;5115035;27;20055;-82
2021/12/23 05:27:05;;;;;;;30.73;16.40;;;-0.20;99.90;;;;;;5134943;27;20434;-82
2021/12/23 05:29:31;;;;;;;27.88;15.38;;;-0.30;99.90;;;;;;5083353;27;20074;-82
2021/12/23 05:31:56;;;;;;;29.17;15.45;;;-0.30;99.90;;;;;;5134871;27;20049;-81
2021/12/23 05:34:22;;;;;;;30.83;16.50;;;-0.30;99.90;;;;;;5116486;27;20364;-85
2021/12/23 05:36:47;;;;;;;27.88;16.23;;;-0.20;99.90;;;;;;5102044;27;20051;-84
2021/12/23 05:39:13;;;;;;;29.92;14.75;;;-0.20;99.90;;;;;;5113346;27;20051;-83
2021/12/23 05:41:39;;;;;;;35.45;17.50;;;-0.30;99.90;;;;;;5115861;27;20106;-83
2021/12/23 05:44:05;;;;;;;29.58;15.77;;;-0.20;99.90;;;;;;5132356;27;20039;-83
2021/12/23 05:46:31;;;;;;;29.48;15.93;;;-0.20;99.90;;;;;;5092286;27;20059;-82
2021/12/23 05:48:56;;;;;;;27.45;15.60;;;-0.20;99.90;;;;;;5099739;27;20511;-83
2021/12/23 05:51:22;;;;;;;28.65;16.33;;;-0.20;99.90;;;;;;5101286;27;20035;-83
2021/12/23 05:53:48;;;;;;;28.90;15.27;;;-0.20;99.90;;;;;;5099742;27;20138;-82
2021/12/23 05:56:13;;;;;;;34.83;17.45;;;-0.20;99.90;;;;;;5122995;27;20047;-82
2021/12/23 05:58:39;;;;;;;31.23;16.45;;;-0.20;99.90;;;;;;5115499;27;20055;-82
2021/12/23 06:01:05;;;;;;;29.15;15.63;;;-0.20;99.90;;;;;;5117645;27;20057;-82
2021/12/23 06:03:32;;;;;;;28.83;15.38;;;-0.20;99.90;;;;;;5101648;27;20042;-83
2021/12/23 06:05:57;;;;;;;28.83;15.25;;;-0.20;99.90;;;;;;5126815;27;20077;-81
2021/12/23 06:08:23;;;;;;;32.97;16.52;;;-0.20;99.90;;;;;;5117734;27;20387;-81
2021/12/23 06:10:49;;;;;;;28.10;15.70;;;-0.20;99.90;;;;;;5106947;27;20063;-81
2021/12/23 06:13:15;;;;;;;31.30;16.95;;;-0.20;99.90;;;;;;5127248;27;20726;-80
2021/12/23 06:15:41;;;;;;;27.45;15.73;;;-0.20;99.90;;;;;;5100515;27;20100;-81
2021/12/23 06:18:06;;;;;;;29.63;16.02;;;-0.20;99.90;;;;;;5092062;28;20051;-83
2021/12/23 06:20:32;;;;;;;32.30;16.88;;;-0.20;99.90;;;;;;5075983;28;20043;-82
2021/12/23 06:22:58;;;;;;;32.50;16.85;;;-0.20;99.90;;;;;;5110371;28;20498;-81
2021/12/23 06:25:23;;;;;;;33.00;16.80;;;-0.20;99.90;;;;;;5110108;28;20043;-81
2021/12/23 06:27:49;;;;;;;29.40;16.13;;;-0.20;99.90;;;;;;5105633;27;20345;-81
2021/12/23 06:30:17;;;;;;;32.22;17.15;;;-0.10;99.90;;;;;;5130612;27;20442;-80
2021/12/23 06:32:52;;;;;;;32.95;16.30;;;-0.10;99.90;;;;;;5112617;27;20055;-81
2021/12/23 06:35:19;;;;;;;31.67;17.35;;;-0.10;99.90;;;;;;5125849;27;20035;-82
2021/12/23 06:37:45;;;;;;;29.65;17.55;;;-0.20;99.90;;;;;;5130000;27;20404;-82
2021/12/23 06:40:11;;;;;;;31.70;16.77;;;-0.10;99.90;;;;;;5113118;27;20043;-82
2021/12/23 06:42:37;;;;;;;31.95;17.05;;;-0.10;99.90;;;;;;5109506;28;20508;-81
2021/12/23 06:45:04;;;;;;;30.77;17.55;;;0.00;99.90;;;;;;5109073;28;20065;-82
2021/12/23 06:47:30;;;;;;;31.42;16.90;;;0.00;99.90;;;;;;5123311;27;20042;-87
2021/12/23 06:49:56;;;;;;;29.65;16.45;;;0.00;99.90;;;;;;5092830;28;20044;-82
2021/12/23 06:52:21;;;;;;;27.98;16.55;;;0.00;99.90;;;;;;5109616;27;20039;-80
2021/12/23 06:54:52;;;;;;;32.13;17.63;;;0.00;99.90;;;;;;5106652;27;20074;-81
2021/12/23 06:57:18;;;;;;;31.08;18.27;;;0.00;99.90;;;;;;5128844;27;20046;-82
2021/12/23 06:59:44;;;;;;;30.75;16.70;;;0.00;99.90;;;;;;5112985;27;20039;-82
2021/12/23 07:02:09;;;;;;;28.88;15.77;;;0.00;99.90;;;;;;5086507;28;20134;-82
2021/12/23 07:04:36;;;;;;;33.50;18.40;;;0.00;99.90;;;;;;5092984;28;20050;-84
2021/12/23 07:07:10;;;;;;;33.75;17.23;;;0.00;99.90;;;;;;5089014;28;20437;-81
2021/12/23 07:09:39;;;;;;;28.95;16.35;;;0.00;99.90;;;;;;5094059;28;20048;-82
2021/12/23 07:12:07;;;;;;;34.00;17.48;;;0.00;99.90;;;;;;5093117;28;20056;-82
2021/12/23 07:14:33;;;;;;;34.03;18.08;;;0.00;99.90;;;;;;5110656;28;20051;-82
2021/12/23 07:16:59;;;;;;;32.38;16.45;;;0.00;99.90;;;;;;5109625;28;20039;-82
2021/12/23 07:19:25;;;;;;;33.67;17.98;;;0.00;99.90;;;;;;5093360;28;20449;-83
2021/12/23 07:21:51;;;;;;;34.28;18.20;;;0.00;99.90;;;;;;5109779;28;20047;-82
2021/12/23 07:24:17;;;;;;;31.65;18.40;;;0.00;99.90;;;;;;5081922;28;20093;-83
2021/12/23 07:26:43;;;;;;;31.20;17.33;;;-0.10;99.90;;;;;;5066785;28;20493;-82
2021/12/23 07:29:08;;;;;;;35.20;18.63;;;-0.10;99.90;;;;;;5072735;28;20051;-82
2021/12/23 07:31:34;;;;;;;31.42;17.77;;;-0.10;99.90;;;;;;5056229;28;20048;-82
2021/12/23 07:34:00;;;;;;;35.97;18.52;;;0.00;99.90;;;;;;5072730;28;20145;-81
2021/12/23 07:36:27;;;;;;;35.13;19.67;;;-0.10;99.90;;;;;;5073037;28;20052;-81
2021/12/23 07:38:54;;;;;;;31.38;17.77;;;-0.10;99.90;;;;;;5089738;28;20060;-82
2021/12/23 07:41:20;;;;;;;38.25;20.73;;;-0.10;99.90;;;;;;5089711;28;20040;-82
2021/12/23 07:43:59;;;;;;;34.58;18.77;;;-0.10;99.90;;;;;;5072655;28;20051;-82
2021/12/23 07:46:27;;;;;;;33.13;18.42;;;0.00;99.90;;;;;;5105993;28;20074;-82
2021/12/23 07:48:54;;;;;;;32.78;18.20;;;0.00;99.90;;;;;;5092763;28;20050;-82
2021/12/23 07:51:20;;;;;;;33.20;18.70;;;-0.10;99.90;;;;;;5093241;28;20055;-82
2021/12/23 07:53:45;;;;;;;33.58;18.35;;;-0.10;99.90;;;;;;5109623;28;20055;-83
2021/12/23 07:56:11;;;;;;;33.85;17.98;;;0.00;99.90;;;;;;5106323;27;20092;-82
2021/12/23 07:58:37;;;;;;;36.45;19.48;;;-0.10;99.90;;;;;;5104930;28;20138;-82
2021/12/23 08:01:03;;;;;;;32.60;18.50;;;-0.10;99.90;;;;;;5059865;28;20071;-82
2021/12/23 08:03:29;;;;;;;35.33;19.35;;;-0.10;99.90;;;;;;5060197;28;20062;-81
2021/12/23 08:05:55;;;;;;;33.65;19.17;;;-0.10;99.90;;;;;;5070767;28;20090;-82
2021/12/23 08:08:20;;;;;;;34.83;18.42;;;-0.10;99.90;;;;;;5093454;28;20080;-82
2021/12/23 08:10:48;;;;;;;34.58;17.27;;;-0.10;99.90;;;;;;5109625;28;20501;-83
2021/12/23 08:13:15;;;;;;;35.03;19.17;;;-0.10;99.90;;;;;;5097313;28;20047;-82
2021/12/23 08:15:40;;;;;;;37.78;20.13;;;-0.10;99.90;;;;;;5137848;27;20139;-82
2021/12/23 08:18:06;;;;;;;35.22;18.63;;;-0.10;99.90;;;;;;5120694;27;20133;-82
2021/12/23 08:20:32;;;;;;;35.70;18.88;;;-0.10;99.90;;;;;;5154758;27;20050;-82
2021/12/23 08:22:57;;;;;;;41.20;19.85;;;-0.10;99.90;;;;;;5136578;27;20046;-83
2021/12/23 08:25:24;;;;;;;36.15;20.30;;;0.00;99.90;;;;;;5081279;28;20134;-82
2021/12/23 08:27:50;;;;;;;40.97;21.35;;;0.00;99.90;;;;;;5062478;28;20130;-82
2021/12/23 08:30:18;;;;;;;41.13;20.50;;;0.00;99.90;;;;;;5096723;28;20059;-82
2021/12/23 08:32:45;;;;;;;37.75;19.58;;;0.00;99.90;;;;;;5096507;28;20046;-85
2021/12/23 08:35:12;;;;;;;40.10;22.15;;;0.00;99.90;;;;;;5103629;28;20051;-83
2021/12/23 08:37:40;;;;;;;40.60;19.95;;;0.00;99.90;;;;;;5113654;28;20134;-83
2021/12/23 08:40:08;;;;;;;39.17;20.65;;;0.10;99.90;;;;;;5062746;28;20285;-82
2021/12/23 08:42:35;;;;;;;39.45;20.08;;;0.10;99.90;;;;;;5096576;28;20058;-82
2021/12/23 08:45:04;;;;;;;36.17;20.48;;;0.10;99.90;;;;;;5105671;27;20128;-82
2021/12/23 08:47:30;;;;;;;39.92;20.13;;;0.10;99.90;;;;;;5100121;27;20476;-82
2021/12/23 08:49:56;;;;;;;37.40;19.92;;;0.10;99.90;;;;;;5116442;27;20054;-83
2021/12/23 08:52:22;;;;;;;41.97;21.95;;;0.10;99.90;;;;;;5134212;27;20043;-82
2021/12/23 08:54:48;;;;;;;41.40;21.42;;;0.10;99.90;;;;;;5100456;28;20043;-85
2021/12/23 08:57:14;;;;;;;44.08;21.73;;;0.10;99.90;;;;;;5113115;28;20128;-81
2021/12/23 08:59:39;;;;;;;39.63;20.60;;;0.10;99.90;;;;;;5130931;27;20039;-82
2021/12/23 09:02:05;;;;;;;46.15;23.27;;;0.20;99.90;;;;;;5116276;27;20051;-82
2021/12/23 09:04:32;;;;;;;36.42;18.75;;;0.20;99.90;;;;;;5105594;27;20049;-79
2021/12/23 09:06:57;;;;;;;46.70;23.55;;;0.20;99.90;;;;;;5153868;27;20051;-82
2021/12/23 09:09:24;;;;;;;49.45;23.20;;;0.20;99.90;;;;;;5136070;27;20054;-81
2021/12/23 09:11:50;;;;;;;41.75;22.13;;;0.20;99.90;;;;;;5137425;27;20061;-85
2021/12/23 09:14:17;;;;;;;45.50;23.42;;;0.20;99.90;;;;;;5092715;28;20044;-85
2021/12/23 09:16:43;;;;;;;48.83;23.40;;;0.20;99.90;;;;;;5096086;28;20043;-83
2021/12/23 09:19:09;;;;;;;46.65;23.25;;;0.20;99.90;;;;;;5112015;28;20365;-83
2021/12/23 09:21:36;;;;;;;44.75;23.05;;;0.20;99.90;;;;;;5111553;28;20048;-82
2021/12/23 09:24:03;;;;;;;45.38;23.20;;;0.30;99.90;;;;;;5122459;27;20156;-82
2021/12/23 09:26:34;;;;;;;43.30;22.63;;;0.30;99.90;;;;;;5133422;27;20452;-82
2021/12/23 09:29:08;;;;;;;52.30;24.60;;;0.30;99.90;;;;;;5099308;27;20043;-84
2021/12/23 09:34:18;;;;;;;51.95;25.05;;;0.30;99.90;;;;;;5133349;27;20099;-82
2021/12/23 09:36:44;;;;;;;51.10;25.52;;;0.30;99.90;;;;;;5133612;27;20043;-81
2021/12/23 09:39:11;;;;;;;50.25;24.52;;;0.40;99.90;;;;;;5133387;27;20388;-81
2021/12/23 09:41:42;;;;;;;54.50;26.08;;;0.40;99.90;;;;;;5116854;27;20065;-81
2021/12/23 09:44:09;;;;;;;54.92;25.65;;;0.30;99.90;;;;;;5116177;27;20054;-81
2021/12/23 09:46:36;;;;;;;51.30;26.08;;;0.40;99.90;;;;;;5133850;27;20047;-81
2021/12/23 09:49:04;;;;;;;51.67;25.38;;;0.40;99.90;;;;;;5133040;27;20411;-80
2021/12/23 09:51:32;;;;;;;58.40;26.85;;;0.30;99.90;;;;;;5133180;27;20073;-81
2021/12/23 09:54:00;;;;;;;64.43;30.10;;;0.40;99.90;;;;;;5137827;27;20066;-82
2021/12/23 09:56:27;;;;;;;62.58;29.45;;;0.40;99.90;;;;;;5148305;27;20042;-81
2021/12/23 09:58:56;;;;;;;61.83;29.27;;;0.50;99.90;;;;;;5131592;27;20496;-81
2021/12/23 10:01:23;;;;;;;59.70;26.40;;;0.40;99.90;;;;;;5132986;27;20090;-81
2021/12/23 10:03:49;;;;;;;60.00;27.08;;;0.40;99.90;;;;;;5133468;27;20400;-81
2021/12/23 10:06:14;;;;;;;68.50;29.27;;;0.40;99.90;;;;;;5138313;27;20043;-81
2021/12/23 10:08:43;;;;;;;68.03;29.08;;;0.40;99.90;;;;;;5119503;27;20065;-81
2021/12/23 10:30:44;;;;;;;74.45;31.42;;;0.40;99.90;;;;;;5132586;27;20051;-80
2021/12/23 10:38:53;;;;;;;73.35;30.65;;;0.50;99.90;;;;;;5112392;27;20492;-81
2021/12/23 10:41:24;;;;;;;68.90;30.23;;;0.50;99.90;;;;;;5097912;27;20039;-81
2021/12/23 10:44:02;;;;;;;74.53;31.92;;;0.50;99.90;;;;;;5115005;27;20047;-80
2021/12/23 10:46:38;;;;;;;77.40;30.63;;;0.50;99.90;;;;;;5132042;27;20051;-81
2021/12/23 10:52:04;;;;;;;70.32;30.63;;;0.50;99.90;;;;;;5130868;27;20062;-82
2021/12/23 11:00:35;;;;;;;74.38;32.47;;;0.50;99.90;;;;;;5110086;28;20051;-83
2021/12/23 11:03:10;;;;;;;81.78;32.45;;;0.50;99.90;;;;;;5110463;28;20061;-81
2021/12/23 11:05:43;;;;;;;78.55;32.17;;;0.50;99.90;;;;;;5116387;27;20046;-79
2021/12/23 11:08:27;;;;;;;77.45;32.33;;;0.50;99.90;;;;;;5131184;27;20035;-81
2021/12/23 11:11:28;;;;;;;79.65;32.58;;;0.50;99.90;;;;;;5113208;27;20059;-80
2021/12/23 11:46:11;;;;;;;84.75;33.20;;;0.50;99.90;;;;;;5131058;28;20070;-86
2021/12/23 11:48:42;;;;;;;77.22;34.10;;;0.50;99.90;;;;;;5131061;28;20400;-80
2021/12/23 11:51:15;;;;;;;80.28;34.33;;;0.50;99.90;;;;;;5113909;28;20476;-81
2021/12/23 11:53:42;;;;;;;82.70;34.60;;;0.50;99.90;;;;;;5114508;28;20055;-80
2021/12/23 11:56:10;;;;;;;78.30;32.95;;;0.50;99.90;;;;;;5114408;28;20051;-79
2021/12/23 11:58:42;;;;;;;87.00;32.80;;;0.50;99.90;;;;;;5121837;28;20054;-79
2021/12/23 12:01:13;;;;;;;84.32;34.95;;;0.50;99.90;;;;;;5093740;28;20047;-80
2021/12/23 12:03:51;;;;;;;85.65;31.95;;;0.50;99.90;;;;;;5093718;28;20083;-79
2021/12/23 12:06:20;;;;;;;88.80;34.60;;;0.60;99.90;;;;;;5110321;28;20447;-80
2021/12/23 12:08:46;;;;;;;85.25;35.92;;;0.50;99.90;;;;;;5110556;28;20059;-80
2021/12/23 12:11:15;;;;;;;91.60;33.95;;;0.50;99.90;;;;;;5109850;28;20066;-87
2021/12/23 12:13:41;;;;;;;87.70;34.55;;;0.50;99.90;;;;;;5109895;28;20147;-83
2021/12/23 12:16:35;;;;;;;85.13;35.30;;;0.50;99.90;;;;;;5075585;28;20081;-80
2021/12/23 12:19:10;;;;;;;86.07;34.42;;;0.50;99.90;;;;;;5109321;28;20058;-81
2021/12/23 12:21:36;;;;;;;83.25;32.90;;;0.60;99.90;;;;;;5109916;28;20055;-80
2021/12/23 12:24:18;;;;;;;97.03;35.25;;;0.60;99.90;;;;;;5076589;28;20044;-80
2021/12/23 12:26:57;;;;;;;87.63;34.28;;;0.60;99.90;;;;;;5110371;28;20143;-80
2021/12/23 12:29:34;;;;;;;98.93;35.70;;;0.60;99.90;;;;;;5092512;28;20112;-79
2021/12/23 12:32:00;;;;;;;88.15;33.67;;;0.60;99.90;;;;;;5110186;28;20108;-79
2021/12/23 12:34:36;;;;;;;88.38;35.58;;;0.60;99.90;;;;;;5092770;28;20138;-80
2021/12/23 12:37:05;;;;;;;91.50;34.85;;;0.60;99.90;;;;;;5093331;28;20048;-79
2021/12/23 12:39:40;;;;;;;76.45;30.85;;;0.60;99.90;;;;;;5110871;28;20443;-81
2021/12/23 12:42:09;;;;;;;93.90;35.92;;;0.60;99.90;;;;;;5109665;28;20059;-80
2021/12/23 12:44:47;;;;;;;96.82;36.25;;;0.60;99.90;;;;;;5112427;28;20055;-81
2021/12/23 12:47:23;;;;;;;80.35;31.10;;;0.60;99.90;;;;;;5113747;28;20052;-80
2021/12/23 12:49:52;;;;;;;94.53;35.95;;;0.60;99.90;;;;;;5113537;28;20044;-81
2021/12/23 12:52:36;;;;;;;89.03;31.60;;;0.60;99.90;;;;;;5113579;28;20142;-81
2021/12/23 12:55:15;;;;;;;98.95;36.53;;;0.70;99.90;;;;;;5097340;28;20047;-82
2021/12/23 12:57:58;;;;;;;90.15;34.35;;;0.70;99.90;;;;;;5114738;27;20122;-80
2021/12/23 13:00:38;;;;;;;94.10;35.00;;;0.70;99.90;;;;;;5134131;27;20078;-80
2021/12/23 13:03:22;;;;;;;94.15;35.83;;;0.70;99.90;;;;;;5134446;27;20451;-80
2021/12/23 13:05:50;;;;;;;99.07;34.40;;;0.70;99.90;;;;;;5116623;27;20050;-80
2021/12/23 13:08:28;;;;;;;90.13;35.75;;;0.70;99.90;;;;;;5114643;28;20116;-81
2021/12/23 13:11:17;;;;;;;95.93;35.38;;;0.70;99.90;;;;;;5096098;28;20048;-80
2021/12/23 13:13:46;;;;;;;89.00;33.67;;;0.70;99.90;;;;;;5113835;28;20051;-80
2021/12/23 13:16:13;;;;;;;91.32;34.63;;;0.60;99.90;;;;;;5096699;28;20112;-80
2021/12/23 13:18:39;;;;;;;86.80;33.03;;;0.70;99.90;;;;;;5113179;28;20053;-80
2021/12/23 13:21:06;;;;;;;90.13;32.67;;;0.70;99.90;;;;;;5079442;28;20119;-80
2021/12/23 13:23:40;;;;;;;91.35;35.47;;;0.70;99.90;;;;;;5079721;28;20097;-79
2021/12/23 13:26:10;;;;;;;90.18;34.55;;;0.70;99.90;;;;;;5113591;28;20050;-79
2021/12/23 13:28:43;;;;;;;101.50;37.80;;;0.70;99.90;;;;;;5121629;27;20031;-77
2021/12/23 13:31:14;;;;;;;90.30;34.50;;;0.70;99.90;;;;;;5125024;27;20520;-79
2021/12/23 13:33:42;;;;;;;90.38;35.28;;;0.70;99.90;;;;;;5128042;27;20039;-85
2021/12/23 13:36:16;;;;;;;90.78;32.88;;;0.70;99.90;;;;;;5128054;27;20126;-82
2021/12/23 13:38:42;;;;;;;92.90;34.40;;;0.70;99.90;;;;;;5114175;27;20066;-81
2021/12/23 13:41:29;;;;;;;101.03;36.22;;;0.70;99.90;;;;;;5111173;27;20083;-80
2021/12/23 13:44:15;;;;;;;95.28;35.28;;;0.70;99.90;;;;;;5128299;27;20035;-76
2021/12/23 13:46:54;;;;;;;89.32;32.63;;;0.70;99.90;;;;;;5110232;27;20409;-76
2021/12/23 13:49:29;;;;;;;91.25;33.05;;;0.70;99.90;;;;;;5122598;27;20043;-77
2021/12/23 13:51:55;;;;;;;94.22;35.30;;;0.80;99.90;;;;;;5109740;27;20169;-75
2021/12/23 13:54:20;;;;;;;93.53;35.33;;;0.70;99.90;;;;;;5113242;27;20137;-74
2021/12/23 13:56:49;;;;;;;101.43;35.50;;;0.70;99.90;;;;;;5131573;27;20396;-75
2021/12/23 13:59:19;;;;;;;100.43;37.08;;;0.80;99.90;;;;;;5132761;27;20039;-76
2021/12/23 14:02:04;;;;;;;104.57;37.05;;;0.70;99.90;;;;;;5118961;27;20122;-75